createdAt,value
2023-03-18T00:02:03.211Z,100700.25
2023-03-18T00:04:30.620Z,100696.63
2023-03-18T00:06:58.808Z,100697.53
2023-03-18T00:09:26.828Z,100703.63
2023-03-18T00:11:56.614Z,100703.63
2023-03-18T00:14:24.443Z,100696.59
2023-03-18T00:16:51.495Z,100694.00
2023-03-18T00:19:18.745Z,100691.34
2023-03-18T00:21:45.904Z,100690.47
2023-03-18T00:24:12.997Z,100689.59
2023-03-18T00:26:40.004Z,100698.34
2023-03-18T00:29:07.771Z,100701.88
2023-03-18T00:31:34.923Z,100702.72
2023-03-18T00:34:02.101Z,100703.59
2023-03-18T00:36:30.514Z,100692.16
2023-03-18T00:38:58.122Z,100700.13
2023-03-18T00:41:27.456Z,100703.53
2023-03-18T00:43:54.949Z,100710.59
2023-03-18T00:46:32.748Z,100714.06
2023-03-18T00:49:05.172Z,100709.78
2023-03-18T00:51:36.410Z,100712.38
2023-03-18T00:54:07.984Z,100704.50
2023-03-18T00:56:37.725Z,100695.72
2023-03-18T00:59:06.422Z,100707.13
2023-03-18T01:01:34.307Z,100707.97
2023-03-18T01:04:01.998Z,100708.91
2023-03-18T01:06:32.495Z,100708.91
2023-03-18T01:09:01.443Z,100716.78
2023-03-18T01:11:29.192Z,100722.06
2023-03-18T01:13:57.307Z,100726.56
2023-03-18T01:16:24.671Z,100728.28
2023-03-18T01:18:52.591Z,100730.06
2023-03-18T01:21:20.008Z,100720.38
2023-03-18T01:23:47.093Z,100722.13
2023-03-18T01:26:14.420Z,100717.69
2023-03-18T01:28:42.392Z,100721.22
2023-03-18T01:31:10.350Z,100725.63
2023-03-18T01:33:37.363Z,100722.97
2023-03-18T01:36:05.537Z,100725.69
2023-03-18T01:38:32.742Z,100729.22
2023-03-18T01:41:01.492Z,100723.00
2023-03-18T01:43:34.226Z,100728.34
2023-03-18T01:46:02.883Z,100728.34
2023-03-18T01:48:35.541Z,100718.69
2023-03-18T01:51:10.101Z,100711.66
2023-03-18T01:53:44.374Z,100716.09
2023-03-18T01:56:12.023Z,100719.53
2023-03-18T01:58:51.247Z,100715.09
2023-03-18T02:01:51.546Z,100725.66
2023-03-18T02:04:21.873Z,100719.47
2023-03-18T02:06:48.978Z,100722.13
2023-03-18T02:09:16.479Z,100717.72
2023-03-18T02:11:49.995Z,100724.72
2023-03-18T02:14:22.240Z,100717.84
2023-03-18T02:17:04.766Z,100717.72
2023-03-18T02:20:15.835Z,100725.63
2023-03-18T02:22:59.022Z,100724.72
2023-03-18T02:25:37.486Z,100724.75
2023-03-18T02:28:14.384Z,100724.72
2023-03-18T02:30:47.658Z,100722.97
2023-03-18T02:33:17.325Z,100728.28
2023-03-18T02:35:47.313Z,100732.75
2023-03-18T02:38:14.426Z,100731.00
2023-03-18T02:40:42.416Z,100736.31
2023-03-18T02:43:27.560Z,100737.13
2023-03-18T02:46:27.691Z,100735.34
2023-03-18T02:48:56.108Z,100745.81
2023-03-18T02:51:23.650Z,100741.38
2023-03-18T02:53:51.890Z,100752.84
2023-03-18T02:56:18.940Z,100753.69
2023-03-18T02:58:46.096Z,100751.94
2023-03-18T03:01:13.182Z,100761.59
2023-03-18T03:03:40.403Z,100760.69
2023-03-18T03:06:08.868Z,100765.94
2023-03-18T03:08:36.086Z,100765.97
2023-03-18T03:11:03.410Z,100764.19
2023-03-18T03:13:30.376Z,100768.56
2023-03-18T03:15:57.409Z,100768.56
2023-03-18T03:18:24.539Z,100765.03
2023-03-18T03:20:52.247Z,100772.94
2023-03-18T03:23:20.429Z,100764.13
2023-03-18T03:25:47.378Z,100764.97
2023-03-18T03:28:16.673Z,100780.75
2023-03-18T03:30:44.701Z,100771.97
2023-03-18T03:33:12.163Z,100766.69
2023-03-18T03:35:39.990Z,100772.81
2023-03-18T03:38:07.893Z,100778.06
2023-03-18T03:40:35.215Z,100771.03
2023-03-18T03:43:02.579Z,100793.84
2023-03-18T03:45:29.750Z,100780.59
2023-03-18T03:47:57.148Z,100779.72
2023-03-18T03:50:24.278Z,100787.56
2023-03-18T03:52:53.025Z,100785.78
2023-03-18T03:55:22.481Z,100791.91
2023-03-18T03:57:50.357Z,100787.53
2023-03-18T04:00:21.419Z,100788.38
2023-03-18T04:02:51.017Z,100794.47
2023-03-18T04:05:21.069Z,100799.78
2023-03-18T04:07:48.851Z,100803.31
2023-03-18T04:10:20.025Z,100817.38
2023-03-18T04:12:47.692Z,100816.50
2023-03-18T04:15:17.394Z,100820.00
2023-03-18T04:17:44.651Z,100827.88
2023-03-18T04:20:12.919Z,100824.38
2023-03-18T04:22:42.032Z,100827.91
2023-03-18T04:25:14.834Z,100825.25
2023-03-18T04:27:42.002Z,100819.06
2023-03-18T04:30:10.706Z,100819.03
2023-03-18T04:32:37.892Z,100828.75
2023-03-18T04:35:05.736Z,100833.09
2023-03-18T04:37:37.125Z,100830.47
2023-03-18T04:40:06.332Z,100837.50
2023-03-18T04:42:33.512Z,100835.75
2023-03-18T04:45:00.548Z,100840.16
2023-03-18T04:47:28.286Z,100843.75
2023-03-18T04:49:55.674Z,100851.66
2023-03-18T04:52:22.843Z,100850.72
2023-03-18T04:54:50.243Z,100855.06
2023-03-18T04:57:18.339Z,100847.19
2023-03-18T04:59:46.184Z,100835.69
2023-03-18T05:02:13.218Z,100829.56
2023-03-18T05:04:40.198Z,100826.75
2023-03-18T05:07:07.263Z,100826.75
2023-03-18T05:09:34.532Z,100827.56
2023-03-18T05:12:01.579Z,100831.88
2023-03-18T05:14:29.893Z,100821.25
2023-03-18T05:16:57.157Z,100830.88
2023-03-18T05:19:25.354Z,100851.06
2023-03-18T05:21:52.678Z,100843.78
2023-03-18T05:24:19.723Z,100836.78
2023-03-18T05:26:47.925Z,100838.38
2023-03-18T05:29:16.343Z,100844.47
2023-03-18T05:31:43.849Z,100842.66
2023-03-18T05:34:10.907Z,100842.63
2023-03-18T05:36:38.387Z,100854.69
2023-03-18T05:39:05.389Z,100865.00
2023-03-18T05:41:32.378Z,100863.97
2023-03-18T05:43:59.489Z,100856.16
2023-03-18T05:46:27.159Z,100857.91
2023-03-18T05:48:54.247Z,100861.44
2023-03-18T05:51:21.406Z,100857.78
2023-03-18T05:53:48.606Z,100862.97
2023-03-18T05:56:16.489Z,100877.63
2023-03-18T05:58:43.817Z,100874.94
2023-03-18T06:01:11.484Z,100880.91
2023-03-18T06:03:38.496Z,100878.34
2023-03-18T06:06:06.492Z,100879.28
2023-03-18T06:08:33.521Z,100880.22
2023-03-18T06:11:01.261Z,100884.44
2023-03-18T06:13:28.320Z,100886.19
2023-03-18T06:16:00.707Z,100886.13
2023-03-18T06:18:28.288Z,100891.31
2023-03-18T06:20:56.313Z,100891.38
2023-03-18T06:23:23.904Z,100899.13
2023-03-18T06:25:51.081Z,100900.97
2023-03-18T06:28:18.701Z,100895.72
2023-03-18T06:30:45.787Z,100899.19
2023-03-18T06:33:15.689Z,100893.94
2023-03-18T06:35:42.730Z,100896.59
2023-03-18T06:38:10.802Z,100898.22
2023-03-18T06:40:38.205Z,100903.50
2023-03-18T06:43:06.171Z,100903.50
2023-03-18T06:45:33.485Z,100901.81
2023-03-18T06:48:01.844Z,100915.03
2023-03-18T06:50:29.641Z,100914.13
2023-03-18T06:52:56.808Z,100921.22
2023-03-18T06:55:24.070Z,100918.72
2023-03-18T06:57:51.316Z,100910.84
2023-03-18T07:00:19.595Z,100911.03
2023-03-18T07:02:46.808Z,100918.09
2023-03-18T07:05:14.701Z,100914.63
2023-03-18T07:07:42.194Z,100916.44
2023-03-18T07:10:22.631Z,100915.75
2023-03-18T07:12:50.546Z,100928.13
2023-03-18T07:15:19.945Z,100921.22
2023-03-18T07:17:47.970Z,100928.34
2023-03-18T07:20:15.769Z,100932.06
2023-03-18T07:22:45.341Z,100934.88
2023-03-18T07:25:13.711Z,100944.59
2023-03-18T07:27:42.291Z,100943.09
2023-03-18T07:30:10.588Z,100941.47
2023-03-18T07:32:38.662Z,100946.72
2023-03-18T07:35:07.389Z,100945.91
2023-03-18T07:37:35.964Z,100940.75
2023-03-18T07:40:08.140Z,100933.06
2023-03-18T07:42:35.286Z,100942.03
2023-03-18T07:45:02.834Z,100939.50
2023-03-18T07:47:30.605Z,100937.88
2023-03-18T07:49:57.660Z,100930.25
2023-03-18T07:52:24.999Z,100941.75
2023-03-18T07:54:52.461Z,100935.63
2023-03-18T07:57:19.726Z,100929.56
2023-03-18T07:59:47.824Z,100941.03
2023-03-18T08:02:15.948Z,100932.41
2023-03-18T08:04:44.212Z,100925.38
2023-03-18T08:07:16.218Z,100935.28
2023-03-18T08:09:45.770Z,100930.09
2023-03-18T08:12:19.072Z,100931.09
2023-03-18T08:14:52.676Z,100935.50
2023-03-18T08:17:19.738Z,100931.19
2023-03-18T08:19:48.849Z,100936.41
2023-03-18T08:22:15.995Z,100937.31
2023-03-18T08:24:45.139Z,100936.59
2023-03-18T08:27:12.541Z,100940.16
2023-03-18T08:29:39.517Z,100946.47
2023-03-18T08:32:07.820Z,100950.06
2023-03-18T08:34:35.925Z,100950.97
2023-03-18T08:37:03.396Z,100949.28
2023-03-18T08:39:30.429Z,100958.22
2023-03-18T08:41:57.462Z,100946.81
2023-03-18T08:44:24.761Z,100959.25
2023-03-18T08:46:51.771Z,100961.94
2023-03-18T08:49:18.804Z,100965.59
2023-03-18T08:51:46.896Z,100960.31
2023-03-18T08:54:13.873Z,100955.13
2023-03-18T08:56:40.936Z,100947.25
2023-03-18T08:59:08.405Z,100947.28
2023-03-18T09:01:35.553Z,100943.81
2023-03-18T09:04:02.787Z,100940.31
2023-03-18T09:06:30.421Z,100937.75
2023-03-18T09:08:57.634Z,100935.94
2023-03-18T09:11:25.261Z,100939.50
2023-03-18T09:13:52.366Z,100941.22
2023-03-18T09:16:19.524Z,100942.16
2023-03-18T09:18:48.702Z,100936.00
2023-03-18T09:21:16.136Z,100944.00
2023-03-18T09:23:43.339Z,100932.53
2023-03-18T09:26:11.508Z,100935.16
2023-03-18T09:28:38.661Z,100931.63
2023-03-18T09:31:06.227Z,100921.06
2023-03-18T09:33:33.348Z,100929.88
2023-03-18T09:36:00.417Z,100934.31
2023-03-18T09:38:27.763Z,100924.56
2023-03-18T09:41:09.588Z,100931.63
2023-03-18T09:43:48.533Z,100932.50
2023-03-18T09:46:40.863Z,100935.16
2023-03-18T09:49:47.600Z,100927.16
2023-03-18T09:52:51.507Z,100929.84
2023-03-18T09:56:10.980Z,100925.41
2023-03-18T09:58:58.593Z,100923.66
2023-03-18T10:01:28.899Z,100929.81
2023-03-18T10:04:03.135Z,100929.84
2023-03-18T10:06:31.014Z,100928.06
2023-03-18T10:09:19.218Z,100927.19
2023-03-18T10:11:52.604Z,100930.72
2023-03-18T10:15:07.417Z,100931.59
2023-03-18T10:17:51.637Z,100923.63
2023-03-18T10:20:32.435Z,100928.94
2023-03-18T10:23:17.101Z,100915.69
2023-03-18T10:25:59.062Z,100923.63
2023-03-18T10:29:08.688Z,100936.00
2023-03-18T10:32:15.769Z,100931.56
2023-03-18T10:35:04.028Z,100928.91
2023-03-18T10:38:30.675Z,100922.75
2023-03-18T10:41:02.164Z,100932.47
2023-03-18T10:43:32.416Z,100921.88
2023-03-18T10:46:07.433Z,100924.50
2023-03-18T10:49:06.266Z,100930.63
2023-03-18T10:51:41.472Z,100931.53
2023-03-18T10:54:30.490Z,100938.59
2023-03-18T10:57:06.152Z,100941.25
2023-03-18T10:59:40.132Z,100942.13
2023-03-18T11:02:43.783Z,100946.59
2023-03-18T11:05:33.819Z,100952.78
2023-03-18T11:08:29.293Z,100949.25
2023-03-18T11:11:05.620Z,100945.72
2023-03-18T11:13:33.283Z,100938.66
2023-03-18T11:16:00.435Z,100944.84
2023-03-18T11:18:27.737Z,100953.69
2023-03-18T11:21:03.278Z,100960.78
2023-03-18T11:24:09.143Z,100960.78
2023-03-18T11:26:58.113Z,100959.00
2023-03-18T11:29:34.573Z,100966.06
2023-03-18T11:32:06.501Z,100970.47
2023-03-18T11:34:37.739Z,100966.06
2023-03-18T11:37:11.774Z,100971.38
2023-03-18T11:39:41.714Z,100969.59
2023-03-18T11:42:22.649Z,100966.94
2023-03-18T11:44:55.320Z,100971.34
2023-03-18T11:47:36.580Z,100974.88
2023-03-18T11:50:04.878Z,100967.81
2023-03-18T11:53:08.875Z,100975.75
2023-03-18T11:55:55.600Z,100971.34
2023-03-18T11:58:47.169Z,100970.47
2023-03-18T12:01:26.661Z,100969.56
2023-03-18T12:04:31.747Z,100962.53
2023-03-18T12:07:32.135Z,100960.78
2023-03-18T12:10:28.458Z,100957.25
2023-03-18T12:13:20.767Z,100961.66
2023-03-18T12:16:09.860Z,100959.00
2023-03-18T12:19:18.238Z,100962.53
2023-03-18T12:22:32.750Z,100955.44
2023-03-18T12:25:43.659Z,100959.00
2023-03-18T12:28:20.086Z,100948.41
2023-03-18T12:31:19.284Z,100950.16
2023-03-18T12:33:56.529Z,100945.75
2023-03-18T12:36:35.820Z,100949.31
2023-03-18T12:39:50.343Z,100944.88
2023-03-18T12:42:53.533Z,100941.34
2023-03-18T12:45:25.137Z,100936.06
2023-03-18T12:48:03.492Z,100932.50
2023-03-18T12:51:13.740Z,100934.28
2023-03-18T12:53:49.293Z,100927.19
2023-03-18T12:56:22.989Z,100922.78
2023-03-18T12:59:15.415Z,100917.47
2023-03-18T13:02:15.743Z,100922.78
2023-03-18T13:04:58.293Z,100907.72
2023-03-18T13:07:46.100Z,100921.81
2023-03-18T13:10:24.505Z,100913.84
2023-03-18T13:12:59.773Z,100911.22
2023-03-18T13:15:49.482Z,100914.69
2023-03-18T13:18:57.003Z,100912.84
2023-03-18T13:21:30.702Z,100897.84
2023-03-18T13:24:09.561Z,100903.91
2023-03-18T13:27:03.723Z,100899.44
2023-03-18T13:29:48.306Z,100904.66
2023-03-18T13:32:21.522Z,100910.09
2023-03-18T13:35:08.686Z,100902.22
2023-03-18T13:38:12.419Z,100907.34
2023-03-18T13:41:18.010Z,100895.78
2023-03-18T13:43:59.638Z,100901.91
2023-03-18T13:46:31.750Z,100893.94
2023-03-18T13:49:06.413Z,100884.09
2023-03-18T13:51:37.605Z,100889.50
2023-03-18T13:54:12.958Z,100875.28
2023-03-18T13:56:50.610Z,100878.88
2023-03-18T13:59:35.654Z,100878.78
2023-03-18T14:02:43.740Z,100865.38
2023-03-18T14:05:41.049Z,100862.84
2023-03-18T14:08:37.144Z,100862.78
2023-03-18T14:11:28.736Z,100860.91
2023-03-18T14:14:07.437Z,100843.94
2023-03-18T14:16:44.672Z,100848.56
2023-03-18T14:19:19.226Z,100837.56
2023-03-18T14:21:55.054Z,100843.03
2023-03-18T14:24:26.493Z,100854.47
2023-03-18T14:27:04.936Z,100844.81
2023-03-18T14:29:41.820Z,100841.47
2023-03-18T14:32:34.810Z,100847.69
2023-03-18T14:35:04.964Z,100847.75
2023-03-18T14:37:34.200Z,100842.47
2023-03-18T14:40:21.617Z,100845.97
2023-03-18T14:43:03.576Z,100837.09
2023-03-18T14:45:36.136Z,100838.94
2023-03-18T14:48:19.093Z,100831.69
2023-03-18T14:50:49.187Z,100831.19
2023-03-18T14:53:33.182Z,100829.41
2023-03-18T14:56:01.393Z,100837.47
2023-03-18T14:58:28.713Z,100824.00
2023-03-18T15:01:09.494Z,100832.06
2023-03-18T15:03:43.609Z,100825.03
2023-03-18T15:06:26.874Z,100821.50
2023-03-18T15:09:02.006Z,100822.63
2023-03-18T15:11:30.254Z,100809.47
2023-03-18T15:14:00.106Z,100817.47
2023-03-18T15:16:33.734Z,100799.66
2023-03-18T15:19:00.937Z,100818.03
2023-03-18T15:21:37.698Z,100803.88
2023-03-18T15:24:08.029Z,100795.09
2023-03-18T15:26:40.259Z,100796.97
2023-03-18T15:29:43.700Z,100798.75
2023-03-18T15:32:26.422Z,100788.25
2023-03-18T15:35:14.963Z,100792.78
2023-03-18T15:37:48.087Z,100787.56
2023-03-18T15:40:30.060Z,100785.88
2023-03-18T15:43:24.869Z,100796.50
2023-03-18T15:46:07.036Z,100792.09
2023-03-18T15:48:54.668Z,100784.13
2023-03-18T15:51:45.047Z,100785.88
2023-03-18T15:54:30.851Z,100780.59
2023-03-18T15:56:59.302Z,100786.81
2023-03-18T15:59:33.665Z,100788.63
2023-03-18T16:02:01.608Z,100780.56
2023-03-18T16:04:34.223Z,100780.56
2023-03-18T16:07:01.251Z,100776.13
2023-03-18T16:09:28.245Z,100771.75
2023-03-18T16:12:00.748Z,100775.28
2023-03-18T16:14:42.867Z,100774.44
2023-03-18T16:17:21.484Z,100763.88
2023-03-18T16:19:53.855Z,100761.22
2023-03-18T16:22:21.999Z,100761.31
2023-03-18T16:24:49.457Z,100764.06
2023-03-18T16:27:39.539Z,100763.28
2023-03-18T16:30:27.507Z,100764.19
2023-03-18T16:32:56.109Z,100766.91
2023-03-18T16:35:26.982Z,100759.84
2023-03-18T16:37:54.517Z,100771.38
2023-03-18T16:40:26.507Z,100767.81
2023-03-18T16:42:54.444Z,100762.56
2023-03-18T16:45:30.677Z,100777.63
2023-03-18T16:48:08.132Z,100775.84
2023-03-18T16:50:37.682Z,100780.28
2023-03-18T16:53:20.276Z,100784.69
2023-03-18T16:55:50.880Z,100787.38
2023-03-18T16:58:25.505Z,100788.25
2023-03-18T17:00:52.855Z,100783.94
2023-03-18T17:03:20.314Z,100787.47
2023-03-18T17:05:53.204Z,100792.81
2023-03-18T17:08:22.081Z,100795.47
2023-03-18T17:10:53.887Z,100799.88
2023-03-18T17:13:28.465Z,100786.63
2023-03-18T17:15:56.078Z,100794.59
2023-03-18T17:18:25.121Z,100793.75
2023-03-18T17:20:52.232Z,100794.63
2023-03-18T17:23:25.393Z,100799.94
2023-03-18T17:25:56.820Z,100801.75
2023-03-18T17:28:37.977Z,100802.63
2023-03-18T17:31:05.538Z,100800.00
2023-03-18T17:33:35.989Z,100815.88
2023-03-18T17:36:04.395Z,100818.53
2023-03-18T17:38:32.574Z,100810.59
2023-03-18T17:41:00.669Z,100812.41
2023-03-18T17:43:34.577Z,100812.41
2023-03-18T17:46:03.754Z,100809.78
2023-03-18T17:48:34.321Z,100815.94
2023-03-18T17:51:13.054Z,100823.03
2023-03-18T17:54:00.125Z,100831.88
2023-03-18T17:56:28.008Z,100831.84
2023-03-18T17:58:55.268Z,100835.41
2023-03-18T18:01:29.095Z,100845.13
2023-03-18T18:04:00.386Z,100837.22
2023-03-18T18:06:29.766Z,100846.94
2023-03-18T18:09:02.217Z,100840.75
2023-03-18T18:11:35.879Z,100843.44
2023-03-18T18:14:26.045Z,100846.97
2023-03-18T18:16:56.079Z,100839.88
2023-03-18T18:19:24.297Z,100838.13
2023-03-18T18:21:52.884Z,100854.84
2023-03-18T18:24:28.426Z,100874.25
2023-03-18T18:26:56.327Z,100919.22
2023-03-18T18:29:29.394Z,100937.84
2023-03-18T18:31:57.272Z,100934.28
2023-03-18T18:34:24.247Z,100962.38
2023-03-18T18:36:53.879Z,100957.06
2023-03-18T18:39:23.385Z,100956.06
2023-03-18T18:41:51.289Z,100960.34
2023-03-18T18:44:19.199Z,100968.25
2023-03-18T18:46:46.748Z,100962.88
2023-03-18T18:49:22.454Z,100967.19
2023-03-18T18:51:55.147Z,100952.97
2023-03-18T18:54:24.202Z,100962.69
2023-03-18T18:56:51.577Z,100960.00
2023-03-18T18:59:28.657Z,100963.50
2023-03-18T19:01:56.422Z,100956.38
2023-03-18T19:04:24.218Z,100961.66
2023-03-18T19:06:54.630Z,100955.41
2023-03-18T19:09:26.267Z,100949.16
2023-03-18T19:11:56.124Z,100956.22
2023-03-18T19:14:26.337Z,100954.47
2023-03-18T19:16:56.475Z,100962.31
2023-03-18T19:19:34.481Z,100967.59
2023-03-18T19:22:02.872Z,100960.53
2023-03-18T19:24:36.948Z,100960.44
2023-03-18T19:27:14.500Z,100964.84
2023-03-18T19:29:42.293Z,100953.31
2023-03-18T19:32:21.635Z,100957.72
2023-03-18T19:34:51.614Z,100965.59
2023-03-18T19:37:32.346Z,100955.97
2023-03-18T19:40:02.299Z,100965.59
2023-03-18T19:42:29.754Z,100963.84
2023-03-18T19:44:57.633Z,100959.44
2023-03-18T19:47:30.045Z,100962.88
2023-03-18T19:49:57.310Z,100964.66
2023-03-18T19:52:27.947Z,100969.91
2023-03-18T19:54:55.446Z,100969.81
2023-03-18T19:57:32.617Z,100968.94
2023-03-18T20:00:05.083Z,100969.81
2023-03-18T20:02:34.446Z,100967.94
2023-03-18T20:05:14.231Z,100977.66
2023-03-18T20:07:41.375Z,100973.28
2023-03-18T20:10:11.271Z,100968.81
2023-03-18T20:12:41.922Z,100973.06
2023-03-18T20:15:22.837Z,100968.78
2023-03-18T20:17:51.918Z,100974.00
2023-03-18T20:20:31.176Z,100971.38
2023-03-18T20:23:04.832Z,100978.34
2023-03-18T20:25:36.807Z,100974.00
2023-03-18T20:28:05.222Z,100973.06
2023-03-18T20:30:40.725Z,100979.16
2023-03-18T20:33:08.729Z,100979.97
2023-03-18T20:35:44.648Z,100975.63
2023-03-18T20:38:31.702Z,100980.84
2023-03-18T20:40:59.505Z,100981.75
2023-03-18T20:43:28.474Z,100981.69
2023-03-18T20:45:59.083Z,100986.03
2023-03-18T20:48:26.276Z,100979.88
2023-03-18T20:50:54.977Z,100979.88
2023-03-18T20:53:28.626Z,100974.63
2023-03-18T20:55:56.455Z,100987.75
2023-03-18T20:58:26.345Z,100997.41
2023-03-18T21:00:54.031Z,100991.28
2023-03-18T21:03:30.770Z,100995.66
2023-03-18T21:06:00.534Z,100980.69
2023-03-18T21:08:28.644Z,100990.38
2023-03-18T21:10:59.571Z,100996.53
2023-03-18T21:13:39.026Z,100985.03
2023-03-18T21:16:13.072Z,100978.00
2023-03-18T21:18:45.494Z,100978.03
2023-03-18T21:21:24.306Z,100980.56
2023-03-18T21:23:53.422Z,100985.97
2023-03-18T21:26:21.855Z,100985.91
2023-03-18T21:28:49.226Z,100993.75
2023-03-18T21:31:33.232Z,100986.75
2023-03-18T21:34:01.100Z,100990.22
2023-03-18T21:36:28.297Z,100995.50
2023-03-18T21:38:55.477Z,100997.25
2023-03-18T21:41:28.294Z,100997.16
2023-03-18T21:43:55.871Z,100988.47
2023-03-18T21:46:27.067Z,100996.38
2023-03-18T21:48:54.344Z,100985.06
2023-03-18T21:51:40.269Z,100992.84
2023-03-18T21:54:18.369Z,100983.13
2023-03-18T21:56:45.470Z,100984.00
2023-03-18T21:59:12.450Z,100974.38
2023-03-18T22:01:39.440Z,100990.34
2023-03-18T22:04:06.829Z,100984.81
2023-03-18T22:06:34.063Z,101000.63
2023-03-18T22:09:01.054Z,100995.41
2023-03-18T22:11:28.098Z,100994.56
2023-03-18T22:13:55.284Z,101000.75
2023-03-18T22:16:22.676Z,100993.66
2023-03-18T22:18:49.741Z,100986.59
2023-03-18T22:21:21.913Z,100983.97
2023-03-18T22:23:49.154Z,100992.63
2023-03-18T22:26:18.889Z,100995.31
2023-03-18T22:28:46.738Z,100997.09
2023-03-18T22:31:27.200Z,101003.19
2023-03-18T22:33:54.804Z,100997.09
2023-03-18T22:36:22.667Z,101001.41
2023-03-18T22:38:49.966Z,100993.47
2023-03-18T22:41:30.324Z,100998.75
2023-03-18T22:43:59.954Z,100996.22
2023-03-18T22:46:28.492Z,100995.97
2023-03-18T22:48:55.912Z,101006.50
2023-03-18T22:51:28.773Z,100998.53
2023-03-18T22:53:55.832Z,100996.81
2023-03-18T22:56:23.547Z,101014.31
2023-03-18T22:58:51.297Z,101015.16
2023-03-18T23:01:23.110Z,101007.22
2023-03-18T23:03:50.541Z,101010.81
2023-03-18T23:06:23.870Z,101016.03
2023-03-18T23:08:51.033Z,101020.44
2023-03-18T23:11:18.122Z,101010.75
2023-03-18T23:13:50.051Z,101011.66
2023-03-18T23:16:21.193Z,101010.75
2023-03-18T23:18:49.303Z,101021.25
2023-03-18T23:21:24.799Z,101023.03
2023-03-18T23:23:52.826Z,101018.63
2023-03-18T23:26:19.981Z,101021.19
2023-03-18T23:28:47.075Z,101020.34
2023-03-18T23:31:16.187Z,101015.06
2023-03-18T23:33:44.185Z,101006.22
2023-03-18T23:36:12.282Z,101008.00
2023-03-18T23:38:39.656Z,101007.13
2023-03-18T23:41:07.393Z,101014.16
2023-03-18T23:43:34.361Z,101021.16
2023-03-18T23:46:02.258Z,101015.91
2023-03-18T23:48:29.603Z,101014.09
2023-03-18T23:50:56.695Z,101019.28
2023-03-18T23:53:23.803Z,101016.59
2023-03-18T23:55:50.970Z,101021.06
2023-03-18T23:58:18.107Z,101019.25
